Greenehaven, Arizona
Current Conditions -  °F | °C
As of 8:53 PM on Monday 22 Dec 2014 (Local Time) from KPGA Reporting Station
Clear Clear  
Wind Chill: 11°   Ceiling: Unl
Heat Index: 11°   Visibility: 10mi
Dew Point: -2°   Wind: 16mph
Humidity: 41%   Direction: 300°WNW
Pressure: 29.97"   Gusts: 25mph
Location:  36.8282°N, 111.153°W
Report Text: KPGA 230353Z AUTO 30014G22KT 10SM CLR 11/M02 A2997 RMK AO2 SLP131 T01061022 TSNO $
Loading
Personal Weather Stations






























Interactive Weather Map New forecast layout! Learn more

10-Day Weather Forecast

Advertisements
Track Severe Weather on mobile